createdAt,value
2022-07-26T00:00:13.203Z,21.09
2022-07-26T00:02:47.845Z,21.49
2022-07-26T00:05:16.908Z,21.59
2022-07-26T00:07:44.190Z,21.40
2022-07-26T00:10:11.445Z,21.65
2022-07-26T00:12:38.476Z,21.30
2022-07-26T00:15:08.264Z,21.58
2022-07-26T00:17:34.976Z,21.42
2022-07-26T00:20:01.783Z,21.27
2022-07-26T00:22:34.040Z,21.17
2022-07-26T00:25:04.911Z,21.20
2022-07-26T00:27:33.087Z,21.18
2022-07-26T00:29:59.814Z,21.25
2022-07-26T00:32:26.635Z,21.09
2022-07-26T00:34:53.423Z,21.07
2022-07-26T00:37:21.035Z,20.30
2022-07-26T00:39:48.888Z,20.49
2022-07-26T00:42:15.808Z,21.08
2022-07-26T00:44:45.199Z,21.02
2022-07-26T00:47:12.855Z,20.29
2022-07-26T00:49:40.093Z,19.92
2022-07-26T00:52:09.050Z,20.02
2022-07-26T00:54:37.301Z,20.20
2022-07-26T00:57:04.412Z,19.14
2022-07-26T00:59:31.447Z,20.14
2022-07-26T01:01:58.179Z,19.85
2022-07-26T01:04:25.319Z,20.23
2022-07-26T01:06:52.176Z,20.14
2022-07-26T01:09:19.576Z,19.96
2022-07-26T01:11:46.663Z,20.06
2022-07-26T01:14:13.910Z,19.82
2022-07-26T01:16:40.797Z,20.06
2022-07-26T01:19:07.601Z,20.25
2022-07-26T01:21:34.922Z,19.84
2022-07-26T01:24:02.552Z,20.11
2022-07-26T01:26:29.269Z,19.31
2022-07-26T01:28:55.961Z,19.85
2022-07-26T01:31:22.675Z,19.50
2022-07-26T01:33:50.125Z,19.18
2022-07-26T01:36:17.359Z,19.11
2022-07-26T01:38:44.581Z,19.10
2022-07-26T01:41:11.599Z,19.17
2022-07-26T01:43:38.261Z,19.02
2022-07-26T01:46:08.323Z,19.77
2022-07-26T01:48:35.678Z,20.04
2022-07-26T01:51:02.805Z,19.64
2022-07-26T01:53:29.555Z,19.68
2022-07-26T01:55:56.241Z,19.58
2022-07-26T01:58:22.907Z,19.39
2022-07-26T02:00:49.824Z,19.71
2022-07-26T02:03:16.571Z,19.52
2022-07-26T02:05:43.236Z,19.65
2022-07-26T02:08:11.208Z,19.93
2022-07-26T02:10:57.210Z,19.87
2022-07-26T02:13:24.246Z,19.73
2022-07-26T02:15:50.955Z,19.78
2022-07-26T02:18:17.762Z,19.59
2022-07-26T02:20:44.476Z,19.78
2022-07-26T02:23:11.985Z,19.30
2022-07-26T02:25:38.673Z,19.15
2022-07-26T02:28:05.808Z,18.94
2022-07-26T02:30:32.462Z,18.74
2022-07-26T02:33:00.383Z,18.79
2022-07-26T02:35:27.311Z,19.11
2022-07-26T02:37:53.983Z,19.08
2022-07-26T02:40:20.596Z,18.53
2022-07-26T02:42:47.384Z,19.19
2022-07-26T02:45:14.065Z,19.60
2022-07-26T02:47:51.244Z,19.54
2022-07-26T02:50:19.481Z,18.81
2022-07-26T02:52:49.465Z,19.47
2022-07-26T02:55:17.752Z,19.53
2022-07-26T02:57:46.258Z,19.32
2022-07-26T03:00:15.989Z,18.92
2022-07-26T03:02:43.052Z,19.54
2022-07-26T03:05:10.694Z,19.45
2022-07-26T03:07:37.668Z,19.38
2022-07-26T03:10:05.075Z,19.36
2022-07-26T03:12:31.827Z,19.03
2022-07-26T03:14:58.497Z,18.48
2022-07-26T03:17:25.222Z,19.42
2022-07-26T03:19:51.985Z,18.95
2022-07-26T03:22:18.957Z,19.44
2022-07-26T03:24:45.643Z,19.27
2022-07-26T03:27:12.331Z,19.23
2022-07-26T03:29:38.996Z,19.76
2022-07-26T03:32:05.964Z,19.88
2022-07-26T03:34:33.025Z,19.98
2022-07-26T03:36:59.736Z,19.79
2022-07-26T03:39:26.425Z,19.18
2022-07-26T03:41:53.164Z,19.64
2022-07-26T03:44:19.956Z,19.74
2022-07-26T03:46:46.826Z,19.67
2022-07-26T03:49:16.880Z,19.64
2022-07-26T03:51:44.360Z,19.47
2022-07-26T03:54:11.668Z,19.06
2022-07-26T03:56:40.163Z,19.55
2022-07-26T03:59:09.763Z,19.21
2022-07-26T04:01:42.083Z,19.32
2022-07-26T04:04:10.692Z,19.23
2022-07-26T04:06:38.916Z,19.07
2022-07-26T04:09:07.234Z,19.11
2022-07-26T04:11:35.137Z,18.94
2022-07-26T04:14:01.834Z,19.07
2022-07-26T04:16:28.767Z,19.30
2022-07-26T04:18:55.858Z,19.23
2022-07-26T04:21:22.809Z,19.05
2022-07-26T04:23:51.443Z,19.02
2022-07-26T04:26:20.395Z,19.00
2022-07-26T04:28:47.329Z,18.17
2022-07-26T04:31:14.263Z,18.38
2022-07-26T04:33:41.345Z,18.48
2022-07-26T04:36:08.252Z,18.57
2022-07-26T04:38:35.245Z,18.78
2022-07-26T04:41:01.985Z,18.20
2022-07-26T04:43:28.596Z,17.79
2022-07-26T04:45:57.400Z,18.16
2022-07-26T04:48:24.846Z,18.05
2022-07-26T04:50:51.879Z,18.63
2022-07-26T04:53:18.694Z,18.80
2022-07-26T04:55:45.768Z,18.83
2022-07-26T04:58:12.703Z,18.48
2022-07-26T05:01:02.824Z,18.89
2022-07-26T05:03:26.132Z,18.62
2022-07-26T05:05:52.971Z,18.33
2022-07-26T05:08:19.817Z,18.68
2022-07-26T05:10:52.971Z,17.90
2022-07-26T05:13:23.067Z,17.62
2022-07-26T05:15:56.901Z,18.01
2022-07-26T05:18:23.528Z,18.53
2022-07-26T05:20:51.308Z,18.58
2022-07-26T05:23:18.209Z,18.70
2022-07-26T05:25:45.018Z,18.60
2022-07-26T05:28:11.737Z,18.77
2022-07-26T05:30:38.480Z,18.24
2022-07-26T05:33:05.504Z,18.59
2022-07-26T05:35:32.150Z,18.71
2022-07-26T05:37:59.265Z,18.64
2022-07-26T05:40:25.956Z,18.33
2022-07-26T05:42:52.589Z,18.23
2022-07-26T05:45:19.328Z,18.40
2022-07-26T05:47:45.947Z,18.20
2022-07-26T05:50:12.576Z,18.17
2022-07-26T05:52:39.275Z,18.21
2022-07-26T05:55:07.146Z,18.34
2022-07-26T05:57:33.785Z,18.25
2022-07-26T06:00:00.429Z,18.42
2022-07-26T06:02:27.159Z,18.69
2022-07-26T06:04:53.837Z,19.29
2022-07-26T06:07:20.618Z,18.91
2022-07-26T06:09:47.286Z,18.83
2022-07-26T06:12:13.886Z,19.07
2022-07-26T06:14:40.611Z,18.94
2022-07-26T06:17:07.294Z,19.14
2022-07-26T06:19:34.274Z,19.42
2022-07-26T06:22:01.270Z,19.50
2022-07-26T06:24:28.477Z,19.74
2022-07-26T06:26:58.004Z,19.68
2022-07-26T06:29:32.279Z,19.77
2022-07-26T06:31:59.381Z,19.59
2022-07-26T06:34:26.100Z,19.60
2022-07-26T06:36:53.416Z,19.55
2022-07-26T06:39:20.077Z,20.18
2022-07-26T06:41:46.778Z,20.00
2022-07-26T06:44:13.422Z,20.11
2022-07-26T06:46:40.083Z,19.56
2022-07-26T06:49:07.151Z,20.19
2022-07-26T06:51:34.108Z,19.88
2022-07-26T06:54:04.217Z,20.08
2022-07-26T06:56:32.459Z,20.29
2022-07-26T06:58:59.152Z,20.40
2022-07-26T07:01:51.190Z,20.49
2022-07-26T07:04:12.667Z,19.84
2022-07-26T07:06:39.479Z,19.87
2022-07-26T07:09:06.700Z,19.67
2022-07-26T07:11:35.535Z,19.73
2022-07-26T07:14:03.235Z,19.84
2022-07-26T07:16:30.337Z,19.79
2022-07-26T07:18:57.318Z,20.06
2022-07-26T07:21:23.991Z,19.98
2022-07-26T07:23:50.628Z,20.26
2022-07-26T07:26:17.403Z,20.10
2022-07-26T07:28:44.019Z,20.25
2022-07-26T07:31:11.129Z,20.08
2022-07-26T07:33:52.521Z,20.66
2022-07-26T07:36:20.162Z,20.72
2022-07-26T07:38:48.988Z,20.77
2022-07-26T07:41:16.482Z,21.31
2022-07-26T07:43:43.126Z,21.32
2022-07-26T07:46:09.810Z,21.10
2022-07-26T07:48:41.141Z,20.24
2022-07-26T07:51:11.989Z,20.90
2022-07-26T07:53:38.863Z,20.75
2022-07-26T07:56:05.810Z,20.80
2022-07-26T07:58:33.070Z,20.65
2022-07-26T08:00:59.724Z,21.12
2022-07-26T08:03:38.747Z,21.14
2022-07-26T08:06:07.399Z,20.84
2022-07-26T08:08:35.156Z,20.89
2022-07-26T08:11:02.568Z,20.40
2022-07-26T08:13:31.124Z,20.39
2022-07-26T08:15:58.040Z,20.70
2022-07-26T08:18:27.549Z,20.47
2022-07-26T08:20:55.441Z,20.72
2022-07-26T08:23:22.756Z,21.67
2022-07-26T08:25:56.976Z,20.97
2022-07-26T08:28:46.920Z,20.31
2022-07-26T08:31:14.658Z,20.31
2022-07-26T08:33:45.799Z,20.00
2022-07-26T08:36:16.973Z,20.44
2022-07-26T08:38:44.578Z,20.25
2022-07-26T08:41:14.152Z,19.82
2022-07-26T08:43:52.133Z,20.50
2022-07-26T08:46:26.366Z,20.52
2022-07-26T08:48:57.418Z,20.32
2022-07-26T08:51:25.546Z,20.31
2022-07-26T08:54:04.766Z,20.25
2022-07-26T08:56:36.802Z,19.84
2022-07-26T08:59:20.064Z,20.02
2022-07-26T09:01:54.565Z,20.49
2022-07-26T09:04:32.777Z,20.51
2022-07-26T09:07:08.049Z,20.62
2022-07-26T09:09:55.411Z,20.60
2022-07-26T09:12:23.587Z,20.93
2022-07-26T09:14:50.637Z,21.13
2022-07-26T09:17:19.388Z,21.03
2022-07-26T09:20:02.309Z,21.66
2022-07-26T09:22:28.999Z,21.89
2022-07-26T09:24:55.736Z,21.78
2022-07-26T09:27:26.536Z,21.31
2022-07-26T09:29:55.146Z,22.17
2022-07-26T09:32:26.869Z,22.54
2022-07-26T09:34:59.025Z,21.77
2022-07-26T09:37:40.284Z,22.22
2022-07-26T09:40:08.219Z,22.33
2022-07-26T09:42:35.219Z,22.40
2022-07-26T09:45:02.604Z,22.33
2022-07-26T09:47:39.797Z,22.10
2022-07-26T09:50:17.565Z,22.32
2022-07-26T09:53:09.842Z,21.98
2022-07-26T09:55:55.442Z,22.21
2022-07-26T09:58:24.178Z,22.63
2022-07-26T10:00:51.248Z,22.62
2022-07-26T10:03:18.124Z,22.58
2022-07-26T10:05:44.919Z,22.63
2022-07-26T10:08:12.714Z,22.95
2022-07-26T10:11:04.528Z,23.37
2022-07-26T10:13:31.563Z,23.11
2022-07-26T10:15:58.809Z,22.29
2022-07-26T10:18:38.185Z,21.97
2022-07-26T10:21:29.648Z,22.40
2022-07-26T10:24:01.173Z,22.53
2022-07-26T10:26:34.073Z,22.56
2022-07-26T10:29:18.920Z,22.96
2022-07-26T10:32:00.847Z,23.10
2022-07-26T10:34:31.797Z,23.51
2022-07-26T10:36:59.336Z,23.69
2022-07-26T10:39:26.071Z,24.12
2022-07-26T10:42:02.640Z,24.03
2022-07-26T10:44:41.857Z,23.54
2022-07-26T10:47:08.394Z,22.63
2022-07-26T10:49:43.541Z,23.23
2022-07-26T10:52:17.382Z,22.66
2022-07-26T10:54:59.250Z,23.09
2022-07-26T10:57:31.574Z,23.00
2022-07-26T10:59:59.256Z,23.36
2022-07-26T11:02:33.850Z,22.32
2022-07-26T11:05:00.952Z,23.43
2022-07-26T11:07:29.279Z,23.10
2022-07-26T11:10:00.400Z,22.89
2022-07-26T11:12:27.777Z,22.85
2022-07-26T11:14:54.370Z,23.11
2022-07-26T11:17:27.270Z,23.38
2022-07-26T11:19:54.936Z,22.74
2022-07-26T11:22:22.360Z,22.66
2022-07-26T11:24:49.221Z,22.86
2022-07-26T11:27:15.883Z,23.18
2022-07-26T11:29:42.519Z,23.30
2022-07-26T11:32:25.590Z,23.93
2022-07-26T11:35:00.661Z,24.65
2022-07-26T11:37:28.027Z,24.23
2022-07-26T11:39:54.676Z,23.22
2022-07-26T11:42:22.080Z,23.69
2022-07-26T11:44:50.373Z,23.94
2022-07-26T11:47:25.206Z,23.75
2022-07-26T11:50:11.701Z,23.25
2022-07-26T11:52:39.686Z,23.91
2022-07-26T11:55:07.161Z,23.71
2022-07-26T11:57:33.892Z,23.54
2022-07-26T12:00:01.140Z,23.72
2022-07-26T12:02:30.571Z,25.01
2022-07-26T12:05:33.277Z,24.04
2022-07-26T12:08:05.309Z,24.40
2022-07-26T12:10:32.259Z,25.79
2022-07-26T12:13:16.022Z,26.90
2022-07-26T12:15:53.243Z,25.81
2022-07-26T12:18:31.277Z,26.54
2022-07-26T12:21:08.832Z,27.82
2022-07-26T12:23:54.484Z,27.58
2022-07-26T12:26:26.463Z,26.60
2022-07-26T12:28:53.885Z,26.21
2022-07-26T12:31:31.699Z,25.93
2022-07-26T12:33:58.837Z,26.83
2022-07-26T12:36:27.491Z,25.23
2022-07-26T12:38:56.191Z,25.47
2022-07-26T12:41:40.006Z,24.02
2022-07-26T12:44:08.986Z,25.61
2022-07-26T12:46:36.443Z,25.23
2022-07-26T12:49:04.916Z,25.42
2022-07-26T12:51:33.287Z,24.31
2022-07-26T12:54:00.000Z,24.30
2022-07-26T12:56:26.646Z,23.84
2022-07-26T12:58:54.138Z,23.48
2022-07-26T13:01:21.252Z,23.09
2022-07-26T13:03:48.202Z,22.47
2022-07-26T13:06:14.800Z,22.74
2022-07-26T13:08:41.425Z,22.72
2022-07-26T13:11:08.323Z,22.82
2022-07-26T13:13:34.947Z,22.91
2022-07-26T13:16:01.716Z,23.14
2022-07-26T13:18:28.362Z,23.60
2022-07-26T13:20:55.007Z,23.73
2022-07-26T13:23:23.144Z,23.70
2022-07-26T13:25:53.260Z,23.76
2022-07-26T13:28:21.243Z,24.04
2022-07-26T13:30:48.145Z,24.17
2022-07-26T13:33:16.584Z,24.68
2022-07-26T13:35:43.639Z,24.79
2022-07-26T13:38:10.632Z,24.61
2022-07-26T13:40:37.342Z,24.53
2022-07-26T13:43:05.356Z,24.13
2022-07-26T13:45:32.027Z,24.29
2022-07-26T13:47:59.186Z,24.54
2022-07-26T13:50:28.033Z,24.37
2022-07-26T13:52:56.120Z,25.02
2022-07-26T13:55:23.202Z,25.21
2022-07-26T13:57:56.733Z,24.64
2022-07-26T14:00:29.183Z,24.65
2022-07-26T14:02:58.403Z,24.33
2022-07-26T14:05:25.998Z,24.47
2022-07-26T14:07:53.192Z,24.61
2022-07-26T14:10:21.212Z,24.82
2022-07-26T14:12:48.458Z,24.69
2022-07-26T14:15:21.107Z,24.40
2022-07-26T14:17:49.156Z,24.85
2022-07-26T14:20:17.168Z,24.76
2022-07-26T14:22:44.483Z,24.44
2022-07-26T14:25:11.896Z,24.82
2022-07-26T14:27:38.938Z,24.25
2022-07-26T14:30:06.497Z,24.24
2022-07-26T14:32:33.220Z,23.74
2022-07-26T14:34:59.860Z,23.99
2022-07-26T14:37:42.977Z,23.67
2022-07-26T14:40:17.097Z,23.33
2022-07-26T14:42:45.276Z,23.48
2022-07-26T14:45:12.734Z,23.73
2022-07-26T14:47:39.916Z,23.71
2022-07-26T14:50:08.518Z,23.61
2022-07-26T14:52:46.735Z,23.47
2022-07-26T14:55:15.261Z,23.57
2022-07-26T14:57:42.702Z,23.71
2022-07-26T15:00:11.891Z,23.74
2022-07-26T15:02:44.160Z,23.62
2022-07-26T15:05:12.250Z,23.68
2022-07-26T15:07:40.130Z,23.75
2022-07-26T15:10:10.171Z,24.05
2022-07-26T15:12:37.630Z,23.99
2022-07-26T15:15:06.101Z,23.79
2022-07-26T15:17:33.256Z,23.81
2022-07-26T15:19:59.896Z,23.63
2022-07-26T15:22:26.695Z,23.77
2022-07-26T15:24:53.431Z,24.04
2022-07-26T15:27:20.625Z,23.98
2022-07-26T15:29:49.583Z,23.71
2022-07-26T15:32:16.341Z,23.70
2022-07-26T15:34:43.092Z,23.84
2022-07-26T15:37:09.881Z,23.86
2022-07-26T15:39:36.539Z,23.69
2022-07-26T15:42:07.410Z,23.93
2022-07-26T15:44:34.600Z,23.53
2022-07-26T15:47:01.724Z,23.21
2022-07-26T15:49:30.593Z,23.79
2022-07-26T15:51:57.637Z,23.80
2022-07-26T15:54:24.424Z,25.75
2022-07-26T15:56:51.128Z,27.07
2022-07-26T15:59:18.100Z,25.54
2022-07-26T16:01:44.907Z,24.39
2022-07-26T16:04:12.198Z,24.13
2022-07-26T16:06:39.408Z,24.50
2022-07-26T16:09:17.364Z,24.34
2022-07-26T16:11:45.765Z,24.24
2022-07-26T16:14:12.668Z,24.21
2022-07-26T16:16:39.303Z,23.95
2022-07-26T16:19:06.103Z,24.15
2022-07-26T16:21:32.899Z,24.11
2022-07-26T16:24:04.371Z,24.13
2022-07-26T16:26:33.459Z,24.04
2022-07-26T16:29:00.693Z,23.69
2022-07-26T16:31:27.671Z,23.68
2022-07-26T16:33:54.431Z,23.24
2022-07-26T16:36:21.005Z,23.24
2022-07-26T16:38:47.747Z,23.12
2022-07-26T16:41:14.585Z,23.05
2022-07-26T16:43:41.444Z,23.15
2022-07-26T16:46:08.141Z,23.06
2022-07-26T16:48:34.923Z,23.01
2022-07-26T16:51:01.963Z,23.13
2022-07-26T16:53:28.946Z,23.19
2022-07-26T16:55:55.699Z,23.51
2022-07-26T16:58:22.789Z,23.58
2022-07-26T17:00:50.373Z,23.73
2022-07-26T17:03:17.405Z,23.38
2022-07-26T17:05:45.829Z,23.32
2022-07-26T17:08:12.796Z,23.28
2022-07-26T17:10:39.583Z,23.38
2022-07-26T17:13:06.385Z,23.14
2022-07-26T17:15:33.264Z,22.93
2022-07-26T17:18:00.231Z,22.93
2022-07-26T17:20:27.292Z,22.74
2022-07-26T17:22:54.505Z,22.65
2022-07-26T17:25:21.394Z,23.04
2022-07-26T17:27:48.293Z,23.21
2022-07-26T17:30:15.273Z,23.24
2022-07-26T17:32:42.356Z,23.03
2022-07-26T17:35:09.678Z,23.06
2022-07-26T17:37:36.451Z,22.98
2022-07-26T17:40:08.004Z,22.97
2022-07-26T17:42:35.566Z,22.96
2022-07-26T17:45:02.523Z,22.85
2022-07-26T17:47:30.590Z,22.70
2022-07-26T17:52:51.086Z,22.49
2022-07-26T17:55:19.235Z,22.43
2022-07-26T17:57:47.654Z,22.41
2022-07-26T18:00:16.886Z,22.40
2022-07-26T18:02:43.594Z,22.39
2022-07-26T18:05:11.154Z,22.29
2022-07-26T18:07:38.355Z,22.21
2022-07-26T18:10:05.772Z,22.20
2022-07-26T18:12:32.520Z,22.29
2022-07-26T18:14:59.195Z,22.20
2022-07-26T18:17:25.825Z,22.08
2022-07-26T18:19:52.443Z,22.10
2022-07-26T18:22:19.137Z,22.12
2022-07-26T18:24:45.848Z,21.99
2022-07-26T18:27:12.611Z,21.93
2022-07-26T18:29:39.290Z,21.79
2022-07-26T18:32:06.273Z,21.97
2022-07-26T18:34:32.938Z,21.70
2022-07-26T18:36:59.779Z,21.85
2022-07-26T18:39:32.687Z,21.87
2022-07-26T18:42:00.565Z,21.85
2022-07-26T18:44:27.367Z,21.74
2022-07-26T18:46:55.984Z,21.87
2022-07-26T18:49:23.592Z,21.84
2022-07-26T18:52:02.835Z,21.89
2022-07-26T18:54:33.173Z,21.81
2022-07-26T18:57:00.176Z,21.88
2022-07-26T18:59:26.972Z,21.50
2022-07-26T19:01:53.777Z,21.64
2022-07-26T19:04:21.583Z,21.55
2022-07-26T19:06:49.190Z,21.65
2022-07-26T19:09:17.121Z,21.84
2022-07-26T19:11:46.834Z,21.78
2022-07-26T19:14:13.686Z,21.88
2022-07-26T19:16:40.523Z,21.79
2022-07-26T19:19:07.321Z,21.31
2022-07-26T19:21:34.451Z,21.28
2022-07-26T19:24:01.320Z,21.06
2022-07-26T19:26:29.786Z,21.09
2022-07-26T19:28:57.113Z,20.83
2022-07-26T19:31:24.064Z,20.62
2022-07-26T19:33:50.997Z,20.30
2022-07-26T19:36:25.504Z,20.26
2022-07-26T19:38:54.274Z,20.30
2022-07-26T19:41:21.040Z,20.19
2022-07-26T19:43:47.637Z,20.14
2022-07-26T19:46:14.551Z,19.95
2022-07-26T19:48:41.431Z,20.00
2022-07-26T19:51:08.203Z,20.06
2022-07-26T19:53:34.977Z,20.21
2022-07-26T19:56:01.797Z,20.10
2022-07-26T19:58:30.464Z,20.09
2022-07-26T20:00:57.258Z,20.04
2022-07-26T20:03:24.047Z,20.29
2022-07-26T20:05:50.781Z,19.95
2022-07-26T20:08:17.541Z,19.94
2022-07-26T20:10:44.238Z,19.84
2022-07-26T20:13:10.941Z,19.91
2022-07-26T20:15:37.723Z,19.96
2022-07-26T20:18:04.631Z,20.16
2022-07-26T20:20:31.546Z,19.77
2022-07-26T20:22:58.452Z,19.86
2022-07-26T20:25:25.300Z,19.76
2022-07-26T20:27:52.912Z,19.48
2022-07-26T20:30:20.119Z,19.69
2022-07-26T20:32:46.815Z,19.61
2022-07-26T20:35:13.461Z,19.60
2022-07-26T20:37:41.705Z,19.77
2022-07-26T20:40:09.972Z,19.61
2022-07-26T20:42:40.414Z,19.57
2022-07-26T20:45:11.470Z,19.35
2022-07-26T20:47:40.558Z,19.27
2022-07-26T20:50:09.469Z,19.04
2022-07-26T20:52:36.652Z,18.89
2022-07-26T20:55:04.169Z,18.97
2022-07-26T20:57:31.087Z,18.82
2022-07-26T20:59:57.950Z,18.73
2022-07-26T21:02:24.822Z,18.94
2022-07-26T21:04:51.689Z,18.80
2022-07-26T21:07:18.852Z,18.74
2022-07-26T21:09:45.481Z,18.71
2022-07-26T21:12:12.338Z,18.71
2022-07-26T21:14:39.286Z,18.28
2022-07-26T21:17:11.284Z,18.32
2022-07-26T21:19:39.327Z,18.52
2022-07-26T21:22:06.586Z,18.45
2022-07-26T21:24:34.930Z,18.51
2022-07-26T21:27:03.075Z,18.42
2022-07-26T21:29:30.016Z,18.25
2022-07-26T21:31:56.968Z,18.63
2022-07-26T21:34:26.788Z,18.41
2022-07-26T21:36:54.169Z,18.20
2022-07-26T21:39:20.999Z,18.04
2022-07-26T21:41:48.893Z,17.77
2022-07-26T21:44:15.711Z,17.92
2022-07-26T21:46:42.393Z,17.91
2022-07-26T21:49:09.627Z,17.73
2022-07-26T21:51:36.580Z,17.84
2022-07-26T21:54:03.566Z,17.53
2022-07-26T21:56:30.200Z,17.29
2022-07-26T21:58:57.064Z,17.26
2022-07-26T22:01:23.812Z,17.15
2022-07-26T22:03:50.420Z,17.43
2022-07-26T22:06:17.149Z,17.28
2022-07-26T22:08:44.153Z,17.30
2022-07-26T22:11:11.187Z,16.82
2022-07-26T22:14:17.416Z,16.72
2022-07-26T22:16:47.491Z,16.83
2022-07-26T22:19:14.561Z,16.55
2022-07-26T22:21:41.260Z,16.61
2022-07-26T22:24:08.087Z,16.93
2022-07-26T22:26:34.813Z,16.93
2022-07-26T22:29:01.675Z,16.60
2022-07-26T22:31:28.463Z,16.68
2022-07-26T22:33:55.172Z,16.81
2022-07-26T22:36:21.924Z,16.86
2022-07-26T22:38:49.393Z,17.01
2022-07-26T22:41:16.284Z,16.99
2022-07-26T22:43:42.948Z,16.88
2022-07-26T22:46:10.100Z,17.06
2022-07-26T22:48:38.544Z,17.13
2022-07-26T22:51:05.651Z,17.10
2022-07-26T22:53:32.487Z,17.04
2022-07-26T22:55:59.197Z,17.11
2022-07-26T22:58:25.875Z,17.02
2022-07-26T23:00:53.809Z,17.04
2022-07-26T23:03:21.853Z,16.99
2022-07-26T23:05:50.591Z,16.79
2022-07-26T23:11:06.981Z,16.77
2022-07-26T23:13:34.217Z,16.93
2022-07-26T23:16:01.983Z,16.92
2022-07-26T23:18:30.239Z,17.15
2022-07-26T23:20:57.237Z,16.96
2022-07-26T23:23:29.139Z,16.82
2022-07-26T23:25:57.793Z,16.74
2022-07-26T23:28:24.762Z,16.73
2022-07-26T23:31:03.714Z,16.56
2022-07-26T23:33:51.329Z,16.91
2022-07-26T23:36:17.009Z,16.72
2022-07-26T23:38:43.679Z,16.65
2022-07-26T23:49:23.541Z,15.97
2022-07-26T23:51:50.566Z,16.46
2022-07-26T23:54:17.312Z,16.52
2022-07-26T23:57:14.808Z,16.26
2022-07-26T23:59:41.396Z,16.28
